createdAt,value
2018-03-21T00:01:39.821Z,7.20
2018-03-21T00:04:08.078Z,7.90
2018-03-21T00:06:36.329Z,6.20
2018-03-21T00:09:04.721Z,7.03
2018-03-21T00:11:32.962Z,6.93
2018-03-21T00:14:01.230Z,7.20
2018-03-21T00:16:29.463Z,7.70
2018-03-21T00:18:57.694Z,6.30
2018-03-21T00:21:26.173Z,5.90
2018-03-21T00:23:54.408Z,6.23
2018-03-21T00:26:22.760Z,6.70
2018-03-21T00:28:51.013Z,6.87
2018-03-21T00:31:19.248Z,7.37
2018-03-21T00:33:48.245Z,6.67
2018-03-21T00:36:17.265Z,6.77
2018-03-21T00:38:45.902Z,7.40
2018-03-21T00:41:14.265Z,7.33
2018-03-21T00:43:42.606Z,7.27
2018-03-21T00:46:11.023Z,7.60
2018-03-21T00:48:39.262Z,8.57
2018-03-21T00:51:07.521Z,5.90
2018-03-21T00:53:36.555Z,7.00
2018-03-21T00:56:05.521Z,6.67
2018-03-21T00:58:33.781Z,8.10
2018-03-21T01:01:02.226Z,7.47
2018-03-21T01:03:30.457Z,7.63
2018-03-21T01:05:59.070Z,7.90
2018-03-21T01:08:27.305Z,7.77
2018-03-21T01:10:55.541Z,8.67
2018-03-21T01:13:23.838Z,7.40
2018-03-21T01:15:52.197Z,7.63
2018-03-21T01:18:20.773Z,6.83
2018-03-21T01:20:49.014Z,6.90
2018-03-21T01:23:17.241Z,6.70
2018-03-21T01:25:45.483Z,6.67
2018-03-21T01:28:13.877Z,5.80
2018-03-21T01:30:42.105Z,6.40
2018-03-21T01:33:10.343Z,6.07
2018-03-21T01:35:38.600Z,6.70
2018-03-21T01:38:06.829Z,6.30
2018-03-21T01:40:35.069Z,6.30
2018-03-21T01:43:03.463Z,6.53
2018-03-21T01:45:31.790Z,8.07
2018-03-21T01:48:00.094Z,7.00
2018-03-21T01:50:28.434Z,7.10
2018-03-21T01:53:08.558Z,7.27
2018-03-21T01:55:36.828Z,7.80
2018-03-21T01:58:05.094Z,8.10
2018-03-21T02:00:33.322Z,7.07
2018-03-21T02:03:01.593Z,8.30
2018-03-21T02:05:29.837Z,7.07
2018-03-21T02:07:58.086Z,7.57
2018-03-21T02:10:26.761Z,8.00
2018-03-21T02:12:55.082Z,6.87
2018-03-21T02:15:23.322Z,6.23
2018-03-21T02:17:51.582Z,6.30
2018-03-21T02:20:19.847Z,8.60
2018-03-21T02:22:48.065Z,7.30
2018-03-21T02:25:16.349Z,7.83
2018-03-21T02:27:44.585Z,6.80
2018-03-21T02:30:12.823Z,8.70
2018-03-21T02:32:42.491Z,7.17
2018-03-21T02:35:10.730Z,8.23
2018-03-21T02:37:38.983Z,5.80
2018-03-21T02:40:07.254Z,7.50
2018-03-21T02:42:36.259Z,6.63
2018-03-21T02:45:05.278Z,7.77
2018-03-21T02:47:33.538Z,8.23
2018-03-21T02:50:01.793Z,7.67
2018-03-21T02:52:30.033Z,7.67
2018-03-21T02:54:58.589Z,8.50
2018-03-21T02:57:26.873Z,7.67
2018-03-21T02:59:55.123Z,8.30
2018-03-21T03:02:23.382Z,7.00
2018-03-21T03:04:51.690Z,8.23
2018-03-21T03:07:19.935Z,8.47
2018-03-21T03:09:48.197Z,8.33
2018-03-21T03:12:16.549Z,8.30
2018-03-21T03:14:45.561Z,7.63
2018-03-21T03:17:13.966Z,7.07
2018-03-21T03:19:42.209Z,7.10
2018-03-21T03:22:10.649Z,6.87
2018-03-21T03:24:38.919Z,7.97
2018-03-21T03:27:07.157Z,6.20
2018-03-21T03:29:35.505Z,5.93
2018-03-21T03:32:04.533Z,5.27
2018-03-21T03:34:32.774Z,6.77
2018-03-21T03:37:01.250Z,7.20
2018-03-21T03:39:29.551Z,7.53
2018-03-21T03:41:58.009Z,7.10
2018-03-21T03:44:26.254Z,7.50
2018-03-21T03:46:54.510Z,8.47
2018-03-21T03:49:22.749Z,7.73
2018-03-21T03:51:50.993Z,6.60
2018-03-21T03:54:19.652Z,6.90
2018-03-21T03:56:47.894Z,7.93
2018-03-21T03:59:16.362Z,6.87
2018-03-21T04:01:45.712Z,7.07
2018-03-21T04:04:14.054Z,6.80
2018-03-21T04:06:43.084Z,5.60
2018-03-21T04:09:11.346Z,6.13
2018-03-21T04:11:39.589Z,7.30
2018-03-21T04:14:07.833Z,6.20
2018-03-21T04:16:36.093Z,7.10
2018-03-21T04:19:04.337Z,6.87
2018-03-21T04:21:33.345Z,7.10
2018-03-21T04:24:02.063Z,7.07
2018-03-21T04:26:30.299Z,6.67
2018-03-21T04:28:58.547Z,5.50
2018-03-21T04:31:26.809Z,5.40
2018-03-21T04:33:55.057Z,6.33
2018-03-21T04:36:23.297Z,5.80
2018-03-21T04:38:52.325Z,6.40
2018-03-21T04:41:20.629Z,5.77
2018-03-21T04:43:48.866Z,6.53
2018-03-21T04:46:17.461Z,6.40
2018-03-21T04:48:45.697Z,5.90
2018-03-21T04:51:13.947Z,6.80
2018-03-21T04:53:43.017Z,6.67
2018-03-21T04:56:11.261Z,6.67
2018-03-21T04:58:39.506Z,6.20
2018-03-21T05:01:08.334Z,6.70
2018-03-21T05:03:36.575Z,6.20
2018-03-21T05:06:04.812Z,6.17
2018-03-21T05:08:33.182Z,6.60
2018-03-21T05:11:01.525Z,5.83
2018-03-21T05:13:30.532Z,5.23
2018-03-21T05:15:58.910Z,5.67
2018-03-21T05:18:27.905Z,6.80
2018-03-21T05:20:56.542Z,6.10
2018-03-21T05:23:24.810Z,7.10
2018-03-21T05:25:53.050Z,7.80
2018-03-21T05:28:21.290Z,6.80
2018-03-21T05:30:50.133Z,7.23
2018-03-21T05:33:18.372Z,6.50
2018-03-21T05:35:46.624Z,6.50
2018-03-21T05:38:14.885Z,6.27
2018-03-21T05:40:43.134Z,7.53
2018-03-21T05:43:11.374Z,7.97
2018-03-21T05:45:40.451Z,7.13
2018-03-21T05:48:08.763Z,7.60
2018-03-21T05:50:36.942Z,7.77
2018-03-21T05:53:05.573Z,6.83
2018-03-21T05:55:33.821Z,7.30
2018-03-21T05:58:02.066Z,7.27
2018-03-21T06:00:30.331Z,8.00
2018-03-21T06:02:59.638Z,7.00
2018-03-21T06:05:28.642Z,6.70
2018-03-21T06:07:56.908Z,7.30
2018-03-21T06:10:25.138Z,8.17
2018-03-21T06:12:53.382Z,7.43
2018-03-21T06:15:21.881Z,6.70
2018-03-21T06:17:50.176Z,7.60
2018-03-21T06:20:18.398Z,7.73
2018-03-21T06:22:46.673Z,6.57
2018-03-21T06:25:15.677Z,6.10
2018-03-21T06:27:43.917Z,6.77
2018-03-21T06:30:13.813Z,6.30
2018-03-21T06:32:42.054Z,6.30
2018-03-21T06:35:10.293Z,5.90
2018-03-21T06:37:38.613Z,6.80
2018-03-21T06:40:06.862Z,6.30
2018-03-21T06:42:35.869Z,6.77
2018-03-21T06:45:04.134Z,6.43
2018-03-21T06:47:32.386Z,6.80
2018-03-21T06:50:01.471Z,6.67
2018-03-21T06:52:29.674Z,7.00
2018-03-21T06:54:58.918Z,6.97
2018-03-21T06:57:27.158Z,7.30
2018-03-21T06:59:56.087Z,7.20
2018-03-21T07:02:24.325Z,6.40
2018-03-21T07:04:52.793Z,7.10
2018-03-21T07:07:21.821Z,7.47
2018-03-21T07:09:50.081Z,7.30
2018-03-21T07:12:18.322Z,5.87
2018-03-21T07:14:58.641Z,6.73
2018-03-21T07:17:26.938Z,6.83
2018-03-21T07:19:55.118Z,6.67
2018-03-21T07:22:23.382Z,5.93
2018-03-21T07:24:51.774Z,6.20
2018-03-21T07:27:20.013Z,6.33
2018-03-21T07:29:48.289Z,6.33
2018-03-21T07:32:17.281Z,5.20
2018-03-21T07:34:45.513Z,6.10
2018-03-21T07:37:14.064Z,5.60
2018-03-21T07:39:42.406Z,6.30
2018-03-21T07:42:11.409Z,5.33
2018-03-21T07:44:39.674Z,6.23
2018-03-21T07:47:07.906Z,5.80
2018-03-21T07:49:36.145Z,5.40
2018-03-21T07:52:04.596Z,5.37
2018-03-21T07:54:32.831Z,5.43
2018-03-21T07:57:01.089Z,5.83
2018-03-21T07:59:29.639Z,5.57
2018-03-21T08:01:57.876Z,5.43
2018-03-21T08:04:26.112Z,5.47
2018-03-21T08:06:54.889Z,5.40
2018-03-21T08:09:23.901Z,4.73
2018-03-21T08:11:52.142Z,4.73
2018-03-21T08:14:20.405Z,6.00
2018-03-21T08:16:48.669Z,4.40
2018-03-21T08:19:16.909Z,5.00
2018-03-21T08:21:45.502Z,4.83
2018-03-21T08:24:13.737Z,4.50
2018-03-21T08:26:41.966Z,3.63
2018-03-21T08:29:10.251Z,3.70
2018-03-21T08:31:39.685Z,3.73
2018-03-21T08:34:07.929Z,6.37
2018-03-21T08:36:36.181Z,4.33
2018-03-21T08:39:04.423Z,3.60
2018-03-21T08:41:33.430Z,3.27
2018-03-21T08:44:02.759Z,3.97
2018-03-21T08:46:30.997Z,5.77
2018-03-21T08:48:59.245Z,3.93
2018-03-21T08:51:27.502Z,4.37
2018-03-21T08:53:55.737Z,4.47
2018-03-21T08:56:23.978Z,3.30
2018-03-21T08:58:52.234Z,4.00
2018-03-21T09:01:20.474Z,4.00
2018-03-21T09:03:48.718Z,3.87
2018-03-21T09:06:17.033Z,3.37
2018-03-21T09:08:45.582Z,3.10
2018-03-21T09:11:13.809Z,2.90
2018-03-21T09:13:42.061Z,2.93
2018-03-21T09:16:10.336Z,3.10
2018-03-21T09:18:38.561Z,3.00
2018-03-21T09:21:06.831Z,3.40
2018-03-21T09:23:35.222Z,2.80
2018-03-21T09:26:03.642Z,4.30
2018-03-21T09:28:31.915Z,3.90
2018-03-21T09:31:00.158Z,2.57
2018-03-21T09:33:28.386Z,3.00
2018-03-21T09:35:56.654Z,3.50
2018-03-21T09:38:24.877Z,3.13
2018-03-21T09:40:53.123Z,3.43
2018-03-21T09:43:21.900Z,2.60
2018-03-21T09:45:50.129Z,2.30
2018-03-21T09:48:18.366Z,2.33
2018-03-21T09:50:46.867Z,1.90
2018-03-21T09:53:15.180Z,2.07
2018-03-21T09:55:43.406Z,2.30
2018-03-21T09:58:11.661Z,2.20
2018-03-21T10:00:39.931Z,4.40
2018-03-21T10:03:08.381Z,2.03
2018-03-21T10:05:36.642Z,3.73
2018-03-21T10:08:04.882Z,2.97
2018-03-21T10:10:33.185Z,2.93
2018-03-21T10:13:01.965Z,2.80
2018-03-21T10:15:30.201Z,2.27
2018-03-21T10:17:58.449Z,2.83
2018-03-21T10:20:26.730Z,2.50
2018-03-21T10:22:55.091Z,3.00
2018-03-21T10:25:23.455Z,3.20
2018-03-21T10:27:51.709Z,2.20
2018-03-21T10:30:21.173Z,3.50
2018-03-21T10:32:49.406Z,3.00
2018-03-21T10:35:17.722Z,3.60
2018-03-21T10:37:46.049Z,3.13
2018-03-21T10:40:14.385Z,2.90
2018-03-21T10:42:42.660Z,2.90
2018-03-21T10:45:11.121Z,3.90
2018-03-21T10:47:39.369Z,2.83
2018-03-21T10:50:08.379Z,3.60
2018-03-21T10:52:39.036Z,3.33
2018-03-21T10:55:05.381Z,2.30
2018-03-21T10:57:34.962Z,2.67
2018-03-21T11:00:03.185Z,2.67
2018-03-21T11:02:37.317Z,2.80
2018-03-21T11:05:05.601Z,3.23
2018-03-21T11:07:34.011Z,2.47
2018-03-21T11:10:02.649Z,2.63
2018-03-21T11:12:30.903Z,2.70
2018-03-21T11:14:59.146Z,3.53
2018-03-21T11:17:27.810Z,2.20
2018-03-21T11:19:56.205Z,2.60
2018-03-21T11:22:25.602Z,2.37
2018-03-21T11:24:53.849Z,2.40
2018-03-21T11:27:22.088Z,2.60
2018-03-21T11:29:50.335Z,2.10
2018-03-21T11:32:18.588Z,1.90
2018-03-21T11:34:47.057Z,3.03
2018-03-21T11:37:15.300Z,2.80
2018-03-21T11:39:43.651Z,2.60
2018-03-21T11:42:11.936Z,2.27
2018-03-21T11:44:40.210Z,2.20
2018-03-21T11:47:08.792Z,3.27
2018-03-21T11:49:37.034Z,3.40
2018-03-21T11:52:05.340Z,2.90
2018-03-21T11:54:33.758Z,2.17
2018-03-21T11:57:02.753Z,3.23
2018-03-21T11:59:31.786Z,2.83
2018-03-21T12:02:00.433Z,3.30
2018-03-21T12:04:29.466Z,2.77
2018-03-21T12:06:57.900Z,2.33
2018-03-21T12:09:26.158Z,2.50
2018-03-21T12:11:54.669Z,2.73
2018-03-21T12:14:23.078Z,2.60
2018-03-21T12:16:52.545Z,2.57
2018-03-21T12:19:21.563Z,3.00
2018-03-21T12:21:49.801Z,2.47
2018-03-21T12:24:18.574Z,2.53
2018-03-21T12:26:46.833Z,2.73
2018-03-21T12:29:15.069Z,2.33
2018-03-21T12:31:44.126Z,2.33
2018-03-21T12:34:12.362Z,2.33
2018-03-21T12:36:40.609Z,3.17
2018-03-21T12:39:09.247Z,3.47
2018-03-21T12:41:37.473Z,2.77
2018-03-21T12:44:05.720Z,2.70
2018-03-21T12:46:34.363Z,3.17
2018-03-21T12:49:02.741Z,3.43
2018-03-21T12:51:30.990Z,2.63
2018-03-21T12:53:59.261Z,2.17
2018-03-21T12:56:27.508Z,2.40
2018-03-21T12:58:55.749Z,5.90
2018-03-21T13:01:24.026Z,2.50
2018-03-21T13:03:52.274Z,3.13
2018-03-21T13:06:20.705Z,2.30
2018-03-21T13:08:49.213Z,2.10
2018-03-21T13:11:17.822Z,2.87
2018-03-21T13:13:46.825Z,2.20
2018-03-21T13:16:15.573Z,2.47
2018-03-21T13:18:43.897Z,3.13
2018-03-21T13:21:12.161Z,1.73
2018-03-21T13:23:40.617Z,1.83
2018-03-21T13:26:09.905Z,1.80
2018-03-21T13:28:38.153Z,2.00
2018-03-21T13:31:06.729Z,2.90
2018-03-21T13:33:34.983Z,1.90
2018-03-21T13:36:03.270Z,2.20
2018-03-21T13:38:31.565Z,4.53
2018-03-21T13:40:59.811Z,1.90
2018-03-21T13:43:28.052Z,2.70
2018-03-21T13:45:56.318Z,1.60
2018-03-21T13:48:24.558Z,1.97
2018-03-21T13:50:53.126Z,2.13
2018-03-21T13:53:21.537Z,1.70
2018-03-21T13:55:49.790Z,1.77
2018-03-21T13:58:18.035Z,1.87
2018-03-21T14:00:46.297Z,1.83
2018-03-21T14:03:14.534Z,1.80
2018-03-21T14:05:42.777Z,2.13
2018-03-21T14:08:11.815Z,2.10
2018-03-21T14:10:40.067Z,2.63
2018-03-21T14:13:08.842Z,1.63
2018-03-21T14:15:38.297Z,1.93
2018-03-21T14:18:06.639Z,1.83
2018-03-21T14:20:34.875Z,1.50
2018-03-21T14:23:03.113Z,1.70
2018-03-21T14:25:31.365Z,1.80
2018-03-21T14:27:59.856Z,1.97
2018-03-21T14:30:28.111Z,1.77
2018-03-21T14:32:57.117Z,1.90
2018-03-21T14:35:25.365Z,1.80
2018-03-21T14:37:53.922Z,2.50
2018-03-21T14:40:22.154Z,2.10
2018-03-21T14:42:50.402Z,1.50
2018-03-21T14:45:18.668Z,2.10
2018-03-21T14:47:46.912Z,2.43
2018-03-21T14:50:15.158Z,1.63
2018-03-21T14:52:43.534Z,1.77
2018-03-21T14:55:11.788Z,1.50
2018-03-21T14:57:40.048Z,1.70
2018-03-21T15:00:08.694Z,2.03
2018-03-21T15:02:36.926Z,1.97
2018-03-21T15:05:05.173Z,2.23
2018-03-21T15:07:33.506Z,3.10
2018-03-21T15:10:01.755Z,2.53
2018-03-21T15:12:29.993Z,2.27
2018-03-21T15:14:58.384Z,1.80
2018-03-21T15:17:27.394Z,1.60
2018-03-21T15:19:55.641Z,2.00
2018-03-21T15:22:24.107Z,2.43
2018-03-21T15:24:52.342Z,1.67
2018-03-21T15:27:20.585Z,2.07
2018-03-21T15:29:48.865Z,1.50
2018-03-21T15:32:17.132Z,1.40
2018-03-21T15:34:45.388Z,2.67
2018-03-21T15:37:13.741Z,1.60
2018-03-21T15:39:41.979Z,1.60
2018-03-21T15:42:11.793Z,1.90
2018-03-21T15:44:40.152Z,2.00
2018-03-21T15:47:08.374Z,1.43
2018-03-21T15:49:36.673Z,3.70
2018-03-21T15:52:04.946Z,2.20
2018-03-21T15:54:33.192Z,1.50
2018-03-21T15:57:01.854Z,1.80
2018-03-21T15:59:30.222Z,3.20
2018-03-21T16:01:58.449Z,1.93
2018-03-21T16:04:27.493Z,1.87
2018-03-21T16:06:56.234Z,1.53
2018-03-21T16:09:24.393Z,1.67
2018-03-21T16:11:52.646Z,2.00
2018-03-21T16:14:20.992Z,2.00
2018-03-21T16:16:49.398Z,1.67
2018-03-21T16:19:17.813Z,1.70
2018-03-21T16:21:46.088Z,1.90
2018-03-21T16:24:15.085Z,1.93
2018-03-21T16:26:44.191Z,2.27
2018-03-21T16:29:13.273Z,2.50
2018-03-21T16:31:43.044Z,2.50
2018-03-21T16:34:11.270Z,2.00
2018-03-21T16:36:39.526Z,2.47
2018-03-21T16:39:08.533Z,2.20
2018-03-21T16:41:36.774Z,2.87
2018-03-21T16:44:05.050Z,2.97
2018-03-21T16:46:33.282Z,2.80
2018-03-21T16:49:01.614Z,3.43
2018-03-21T16:51:30.138Z,3.73
2018-03-21T16:53:58.371Z,3.20
2018-03-21T16:56:26.612Z,3.57
2018-03-21T16:58:54.890Z,4.37
2018-03-21T17:01:23.138Z,3.67
2018-03-21T17:03:51.410Z,4.20
2018-03-21T17:06:19.662Z,3.50
2018-03-21T17:08:47.901Z,6.10
2018-03-21T17:11:16.145Z,3.27
2018-03-21T17:13:44.549Z,4.40
2018-03-21T17:16:12.790Z,2.90
2018-03-21T17:18:41.030Z,6.30
2018-03-21T17:21:09.311Z,4.23
2018-03-21T17:23:37.553Z,3.47
2018-03-21T17:26:05.797Z,4.00
2018-03-21T17:28:34.905Z,3.70
2018-03-21T17:31:03.158Z,3.07
2018-03-21T17:33:32.168Z,3.53
2018-03-21T17:36:00.622Z,3.47
2018-03-21T17:38:29.621Z,3.20
2018-03-21T17:40:57.862Z,3.77
2018-03-21T17:43:26.133Z,7.17
2018-03-21T17:45:54.382Z,4.60
2018-03-21T17:48:22.640Z,2.80
2018-03-21T17:50:50.975Z,3.43
2018-03-21T17:53:19.217Z,3.57
2018-03-21T17:55:47.537Z,4.47
2018-03-21T17:58:16.127Z,3.97
2018-03-21T18:00:44.606Z,11.00
2018-03-21T18:03:12.993Z,4.20
2018-03-21T18:05:41.388Z,3.60
2018-03-21T18:08:09.628Z,4.50
2018-03-21T18:10:37.878Z,8.90
2018-03-21T18:13:06.234Z,4.30
2018-03-21T18:15:35.284Z,4.27
2018-03-21T18:18:03.565Z,3.10
2018-03-21T18:20:32.353Z,3.43
2018-03-21T18:23:00.659Z,3.73
2018-03-21T18:25:29.828Z,4.13
2018-03-21T18:27:58.225Z,3.40
2018-03-21T18:30:26.465Z,4.30
2018-03-21T18:32:54.713Z,4.73
2018-03-21T18:35:23.898Z,4.30
2018-03-21T18:37:52.180Z,4.80
2018-03-21T18:40:20.552Z,9.17
2018-03-21T18:42:49.875Z,6.43
2018-03-21T18:45:18.116Z,4.83
2018-03-21T18:47:46.361Z,4.43
2018-03-21T18:50:14.617Z,9.00
2018-03-21T18:52:43.030Z,5.37
2018-03-21T18:55:11.299Z,4.80
2018-03-21T18:57:39.553Z,4.60
2018-03-21T19:00:07.913Z,5.40
2018-03-21T19:02:36.157Z,5.23
2018-03-21T19:05:04.994Z,4.97
2018-03-21T19:07:33.230Z,4.43
2018-03-21T19:10:01.469Z,5.57
2018-03-21T19:12:30.256Z,5.23
2018-03-21T19:14:58.482Z,5.50
2018-03-21T19:17:27.490Z,5.83
2018-03-21T19:19:56.623Z,5.67
2018-03-21T19:22:24.846Z,6.03
2018-03-21T19:24:53.852Z,5.50
2018-03-21T19:27:22.361Z,5.37
2018-03-21T19:29:50.585Z,5.20
2018-03-21T19:32:19.583Z,5.87
2018-03-21T19:34:48.609Z,5.50
2018-03-21T19:37:16.847Z,5.97
2018-03-21T19:39:45.087Z,6.27
2018-03-21T19:42:13.348Z,5.33
2018-03-21T19:44:41.756Z,5.80
2018-03-21T19:47:09.993Z,5.90
2018-03-21T19:49:38.325Z,7.37
2018-03-21T19:52:06.575Z,8.63
2018-03-21T19:54:34.813Z,6.30
2018-03-21T19:57:03.081Z,6.53
2018-03-21T19:59:32.086Z,5.83
2018-03-21T20:02:00.317Z,6.20
2018-03-21T20:04:29.162Z,5.43
2018-03-21T20:06:57.396Z,5.80
2018-03-21T20:09:25.668Z,7.13
2018-03-21T20:11:54.017Z,6.20
2018-03-21T20:14:22.261Z,6.03
2018-03-21T20:16:50.501Z,5.90
2018-03-21T20:19:19.529Z,5.23
2018-03-21T20:21:47.769Z,5.70
2018-03-21T20:24:15.993Z,5.80
2018-03-21T20:26:44.258Z,5.23
2018-03-21T20:29:12.501Z,5.80
2018-03-21T20:31:40.731Z,5.13
2018-03-21T20:34:09.417Z,5.90
2018-03-21T20:36:37.760Z,4.67
2018-03-21T20:39:05.953Z,5.47
2018-03-21T20:41:34.227Z,5.53
2018-03-21T20:44:03.222Z,5.13
2018-03-21T20:46:31.451Z,5.50
2018-03-21T20:48:59.729Z,6.23
2018-03-21T20:51:27.970Z,4.90
2018-03-21T20:53:56.205Z,5.90
2018-03-21T20:56:25.457Z,5.50
2018-03-21T20:58:53.734Z,5.67
2018-03-21T21:01:21.974Z,4.70
2018-03-21T21:03:50.243Z,5.17
2018-03-21T21:06:19.387Z,5.60
2018-03-21T21:08:47.601Z,4.70
2018-03-21T21:11:16.634Z,5.20
2018-03-21T21:13:44.930Z,5.20
2018-03-21T21:16:13.169Z,4.60
2018-03-21T21:18:41.772Z,4.63
2018-03-21T21:21:10.009Z,5.47
2018-03-21T21:23:38.246Z,5.33
2018-03-21T21:26:06.968Z,5.97
2018-03-21T21:28:35.173Z,5.00
2018-03-21T21:31:03.414Z,5.47
2018-03-21T21:33:32.455Z,6.70
2018-03-21T21:36:00.685Z,5.70
2018-03-21T21:38:29.690Z,5.00
2018-03-21T21:40:59.025Z,6.00
2018-03-21T21:43:27.265Z,6.33
2018-03-21T21:45:55.550Z,5.73
2018-03-21T21:48:24.114Z,5.20
2018-03-21T21:50:52.366Z,5.87
2018-03-21T21:53:20.601Z,7.17
2018-03-21T21:55:48.867Z,6.07
2018-03-21T21:58:17.097Z,5.80
2018-03-21T22:00:45.338Z,6.43
2018-03-21T22:03:13.829Z,6.00
2018-03-21T22:05:42.082Z,6.33
2018-03-21T22:08:10.330Z,5.70
2018-03-21T22:10:38.587Z,5.33
2018-03-21T22:13:06.826Z,7.00
2018-03-21T22:15:35.057Z,5.77
2018-03-21T22:18:03.398Z,6.30
2018-03-21T22:20:31.794Z,5.57
2018-03-21T22:23:00.029Z,6.07
2018-03-21T22:25:28.622Z,4.70
2018-03-21T22:27:57.269Z,6.50
2018-03-21T22:30:25.502Z,5.77
2018-03-21T22:32:53.765Z,5.37
2018-03-21T22:35:22.001Z,5.90
2018-03-21T22:37:50.238Z,5.20
2018-03-21T22:40:18.497Z,5.77
2018-03-21T22:42:46.733Z,5.03
2018-03-21T22:45:14.969Z,5.63
2018-03-21T22:47:43.290Z,5.50
2018-03-21T22:50:11.525Z,5.57
2018-03-21T22:52:39.758Z,5.20
2018-03-21T22:55:08.017Z,5.50
2018-03-21T22:57:36.253Z,4.80
2018-03-21T23:00:04.488Z,5.23
2018-03-21T23:02:32.746Z,4.83
2018-03-21T23:05:01.746Z,6.00
2018-03-21T23:07:30.737Z,6.17
2018-03-21T23:10:00.070Z,5.90
2018-03-21T23:12:28.306Z,5.07
2018-03-21T23:14:56.538Z,5.43
2018-03-21T23:17:24.793Z,5.23
2018-03-21T23:19:53.030Z,5.37
2018-03-21T23:22:21.266Z,6.03
2018-03-21T23:24:49.525Z,5.87
2018-03-21T23:27:17.757Z,4.63
2018-03-21T23:29:47.051Z,4.23
2018-03-21T23:32:15.786Z,4.37
2018-03-21T23:34:44.029Z,4.63
2018-03-21T23:37:12.270Z,4.60
2018-03-21T23:39:40.941Z,4.10
2018-03-21T23:42:09.180Z,4.60
2018-03-21T23:44:37.418Z,4.53
2018-03-21T23:47:05.682Z,5.03
2018-03-21T23:49:33.926Z,4.80
2018-03-21T23:52:02.168Z,5.17
2018-03-21T23:54:31.254Z,5.73
2018-03-21T23:57:00.267Z,5.07
2018-03-21T23:59:28.501Z,5.57
